Time;durP1;ratioP1;P1;durP2;ratioP2;P2;SDS_P1;SDS_P2;PMS_P1;PMS_P2;Temp;Humidity;BMP_temperature;BMP_pressure;BME280_temperature;BME280_humidity;BME280_pressure;Samples;Min_cycle;Max_cycle;Signal;HPM_P1;HPM_P2
2022/05/29 00:02:18;;;;;;;1.37;1.20;;;8.10;1.00;8.80;93819.00;;;;7399403;19;20500;-78
2022/05/29 00:04:46;;;;;;;3.23;1.30;;;8.20;1.00;8.80;93837.00;;;;7400761;19;20173;-78
2022/05/29 00:07:20;;;;;;;5.27;1.60;;;8.10;1.00;8.70;93808.00;;;;7400095;19;20539;-79
2022/05/29 00:09:51;;;;;;;7.33;1.47;;;8.10;1.00;8.70;93828.00;;;;7399083;19;20129;-78
2022/05/29 00:12:22;;;;;;;4.03;1.30;;;8.10;1.00;8.70;93797.00;;;;7401127;19;20173;-78
2022/05/29 00:15:02;;;;;;;2.57;1.23;;;8.10;1.00;8.70;93819.00;;;;7398899;19;20201;-78
2022/05/29 00:17:30;;;;;;;3.40;1.33;;;8.20;1.00;8.70;93833.00;;;;7400605;19;20630;-79
2022/05/29 00:20:06;;;;;;;4.17;1.60;;;8.10;1.00;8.60;93817.00;;;;7401087;19;20132;-79
2022/05/29 00:22:33;;;;;;;7.43;1.80;;;8.00;9.60;8.60;93804.00;;;;7400299;19;20581;-77
2022/05/29 00:25:06;;;;;;;3.27;1.60;;;8.00;1.00;8.50;93821.00;;;;7400145;19;20138;-77
2022/05/29 00:27:39;;;;;;;3.53;1.43;;;7.90;12.70;8.40;93800.00;;;;7400102;19;20128;-78
2022/05/29 00:30:11;;;;;;;4.90;1.50;;;7.90;42.60;8.30;93801.00;;;;7398627;19;20168;-78
2022/05/29 00:32:38;;;;;;;6.03;1.70;;;7.80;65.90;8.30;93810.00;;;;7400172;19;20137;-77
2022/05/29 00:35:11;;;;;;;7.17;1.60;;;7.70;37.30;8.50;93812.00;;;;7399836;19;20149;-77
2022/05/29 00:37:41;;;;;;;1.90;1.50;;;7.70;9.10;8.40;93817.00;;;;7398588;19;20141;-77
2022/05/29 00:40:43;;;;;;;5.23;1.60;;;7.80;18.20;8.40;93814.00;;;;7398972;19;20928;-77
2022/05/29 00:43:17;;;;;;;7.23;1.40;;;7.80;18.10;8.40;93802.00;;;;7392581;19;20619;-77
2022/05/29 00:45:59;;;;;;;10.00;1.53;;;7.80;40.60;8.30;93793.00;;;;7398305;19;20152;-78
2022/05/29 00:48:32;;;;;;;7.30;1.43;;;7.70;69.60;8.30;93805.00;;;;7399254;19;20129;-77
2022/05/29 00:51:05;;;;;;;2.97;1.20;;;7.70;70.50;8.20;93769.00;;;;7398087;19;20149;-78
2022/05/29 00:53:40;;;;;;;4.70;1.80;;;7.70;91.00;8.30;93792.00;;;;7399825;19;20129;-77
2022/05/29 00:56:12;;;;;;;4.83;1.70;;;7.60;80.40;8.30;93784.00;;;;7398774;19;20135;-79
2022/05/29 00:58:39;;;;;;;6.60;1.70;;;7.70;66.10;8.30;93785.00;;;;7397469;19;20133;-78
2022/05/29 01:01:13;;;;;;;4.20;1.57;;;7.70;63.30;8.30;93778.00;;;;7399142;19;20158;-78
2022/05/29 01:03:41;;;;;;;2.40;1.40;;;7.70;31.40;8.30;93773.00;;;;7398333;19;20496;-77
2022/05/29 01:06:08;;;;;;;6.43;1.90;;;7.70;26.40;8.30;93776.00;;;;7397821;19;20144;-78
2022/05/29 01:08:42;;;;;;;6.07;1.97;;;7.80;52.60;8.30;93789.00;;;;7398444;19;20129;-78
2022/05/29 01:11:59;;;;;;;4.63;1.60;;;7.70;32.10;8.20;93788.00;;;;7398847;19;20160;-77
2022/05/29 01:15:20;;;;;;;3.43;1.30;;;7.70;71.70;8.20;93788.00;;;;7396177;19;20619;-78
2022/05/29 01:18:35;;;;;;;2.57;1.43;;;7.70;76.10;8.30;93782.00;;;;7396547;19;20197;-78
2022/05/29 01:21:17;;;;;;;2.77;1.37;;;7.70;39.50;8.30;93779.00;;;;7396888;19;20174;-76
2022/05/29 01:24:40;;;;;;;3.87;1.40;;;7.70;50.10;8.30;93777.00;;;;7397910;19;20157;-78
2022/05/29 01:28:17;;;;;;;6.60;1.43;;;7.70;26.00;8.30;93782.00;;;;7394405;19;20169;-79
2022/05/29 01:30:56;;;;;;;2.10;1.50;;;7.70;28.50;8.30;93759.00;;;;7395820;19;20181;-78
2022/05/29 01:33:40;;;;;;;6.17;1.40;;;7.80;58.90;8.30;93742.00;;;;7396471;19;20146;-78
2022/05/29 01:36:26;;;;;;;2.33;1.40;;;7.70;83.10;8.30;93769.00;;;;7396270;19;20136;-77
2022/05/29 01:39:11;;;;;;;3.80;1.47;;;7.70;54.10;8.20;93751.00;;;;7397681;19;20729;-77
2022/05/29 01:41:48;;;;;;;7.67;1.67;;;7.70;40.90;8.30;93754.00;;;;7397770;19;20150;-77
2022/05/29 01:44:35;;;;;;;5.03;1.70;;;7.70;81.10;8.20;93745.00;;;;7397599;19;20695;-77
2022/05/29 01:47:33;;;;;;;3.90;1.50;;;7.70;99.90;8.20;93752.00;;;;7397579;19;20133;-77
2022/05/29 01:50:16;;;;;;;2.47;1.67;;;7.70;70.50;8.20;93755.00;;;;7395077;19;20663;-77
2022/05/29 01:52:54;;;;;;;4.40;1.20;;;7.70;88.10;8.10;93723.00;;;;7395928;19;20595;-78
2022/05/29 01:55:40;;;;;;;2.50;1.40;;;7.70;99.90;8.20;93745.00;;;;7396406;19;20155;-76
2022/05/29 01:58:24;;;;;;;3.40;1.53;;;7.70;59.50;8.20;93746.00;;;;7396057;19;20204;-77
2022/05/29 02:01:11;;;;;;;1.63;1.20;;;7.60;88.00;8.20;93726.00;;;;7396339;19;20133;-77
2022/05/29 02:03:53;;;;;;;3.37;1.60;;;7.60;91.30;8.10;93725.00;;;;7396646;19;20164;-79
2022/05/29 02:09:32;;;;;;;5.60;1.60;;;7.40;99.90;7.80;93711.00;;;;7395622;19;20628;-78
2022/05/29 02:12:13;;;;;;;5.13;2.00;;;7.30;99.90;7.60;93702.00;;;;7396199;19;20149;-78
2022/05/29 02:15:00;;;;;;;3.50;1.53;;;7.20;99.90;7.60;93719.00;;;;7394435;19;20630;-77
2022/05/29 02:17:48;;;;;;;4.00;1.50;;;7.00;99.90;7.30;93721.00;;;;7395842;19;20145;-78
2022/05/29 02:20:29;;;;;;;5.50;1.70;;;6.90;99.90;7.30;93720.00;;;;7397245;19;20128;-78
2022/05/29 02:23:16;;;;;;;7.07;2.10;;;6.80;99.90;7.20;93695.00;;;;7397431;19;20201;-77
2022/05/29 02:25:45;;;;;;;5.33;1.70;;;6.70;99.90;7.10;93695.00;;;;7394519;19;20475;-76
2022/05/29 02:28:32;;;;;;;6.97;1.87;;;6.60;99.90;7.00;93705.00;;;;7395764;19;20124;-78
2022/05/29 02:31:27;;;;;;;8.63;1.83;;;6.50;99.90;6.90;93651.00;;;;7393599;19;20125;-78
2022/05/29 02:34:19;;;;;;;3.73;1.40;;;6.40;99.90;6.90;93699.00;;;;7397860;19;20141;-77
2022/05/29 02:37:15;;;;;;;5.87;1.80;;;6.30;99.90;6.80;93703.00;;;;7395954;19;20165;-78
2022/05/29 02:40:21;;;;;;;5.47;1.77;;;6.30;99.90;6.80;93690.00;;;;7395691;19;20128;-78
2022/05/29 02:43:19;;;;;;;3.60;2.00;;;6.30;99.90;6.80;93696.00;;;;7393800;19;20633;-76
2022/05/29 02:46:35;;;;;;;6.57;2.00;;;6.30;1.00;6.70;93692.00;;;;7394444;19;20148;-78
2022/05/29 02:49:42;;;;;;;3.17;1.60;;;6.20;1.00;6.80;93691.00;;;;7394256;19;20160;-78
2022/05/29 02:52:18;;;;;;;5.27;1.90;;;6.20;1.00;6.90;93656.00;;;;7394741;19;20164;-78
2022/05/29 02:54:45;;;;;;;4.40;1.70;;;6.30;1.00;7.00;93686.00;;;;7395155;19;20129;-78
2022/05/29 02:57:19;;;;;;;3.97;2.03;;;6.30;1.00;6.90;93655.00;;;;7395241;19;20185;-77
2022/05/29 03:00:02;;;;;;;7.10;1.73;;;6.30;1.00;7.10;93671.00;;;;7395619;19;20601;-77
2022/05/29 03:02:53;;;;;;;5.27;1.70;;;6.40;1.00;7.20;93676.00;;;;7396136;19;20125;-79
2022/05/29 03:06:18;;;;;;;4.67;2.00;;;6.40;1.00;7.10;93679.00;;;;7394103;19;20168;-78
2022/05/29 03:09:03;;;;;;;3.13;1.77;;;6.50;1.00;7.10;93681.00;;;;7390563;19;20140;-77
2022/05/29 03:11:44;;;;;;;4.60;1.70;;;6.50;1.00;7.20;93658.00;;;;7395959;19;20129;-78
2022/05/29 03:14:43;;;;;;;7.23;2.20;;;6.60;99.90;7.20;93669.00;;;;7393478;19;20168;-78
2022/05/29 03:18:25;;;;;;;4.00;1.60;;;6.60;99.90;7.20;93653.00;;;;7393513;19;20882;-78
2022/05/29 03:21:07;;;;;;;2.13;1.53;;;6.70;99.90;7.20;93660.00;;;;7391225;19;20169;-79
2022/05/29 03:24:19;;;;;;;5.53;1.77;;;6.70;99.90;7.30;93665.00;;;;7392035;19;20161;-78
2022/05/29 03:27:16;;;;;;;4.50;1.73;;;6.80;99.90;7.30;93672.00;;;;7394250;19;20136;-78
2022/05/29 03:30:05;;;;;;;5.33;2.20;;;6.80;99.90;7.30;93644.00;;;;7393722;19;20149;-78
2022/05/29 03:32:35;;;;;;;6.87;2.30;;;6.80;99.90;7.30;93637.00;;;;7395167;19;20140;-79
2022/05/29 03:35:31;;;;;;;4.20;1.77;;;6.80;1.00;7.30;93665.00;;;;7392396;19;20128;-79
2022/05/29 03:38:01;;;;;;;5.20;1.83;;;6.80;1.00;7.30;93673.00;;;;7392695;19;20161;-78
2022/05/29 03:40:35;;;;;;;7.63;2.23;;;6.80;1.00;7.10;93667.00;;;;7392761;19;20124;-77
2022/05/29 03:43:03;;;;;;;3.77;1.67;;;6.80;1.00;7.00;93656.00;;;;7391606;19;20133;-76
2022/05/29 03:45:31;;;;;;;3.27;1.80;;;6.70;1.00;6.90;93657.00;;;;7391623;19;20140;-76
2022/05/29 03:48:06;;;;;;;3.63;1.80;;;6.60;18.00;6.80;93656.00;;;;7390880;19;20134;-78
2022/05/29 03:50:34;;;;;;;3.23;1.60;;;6.40;99.90;6.60;93670.00;;;;7389107;19;20480;-78
2022/05/29 03:53:05;;;;;;;3.80;2.07;;;6.30;1.00;6.40;93681.00;;;;7392161;19;20524;-78
2022/05/29 03:55:38;;;;;;;5.13;2.20;;;6.20;1.00;6.30;93685.00;;;;7393655;19;20473;-78
2022/05/29 03:58:05;;;;;;;4.37;2.30;;;6.10;76.70;6.30;93689.00;;;;7392361;19;20490;-79
2022/05/29 04:00:33;;;;;;;3.60;2.23;;;6.00;99.90;6.20;93684.00;;;;7390160;19;20161;-79
2022/05/29 04:03:10;;;;;;;3.43;2.17;;;5.90;99.90;6.20;93640.00;;;;7389599;19;20196;-78
2022/05/29 04:05:37;;;;;;;6.07;2.60;;;5.80;1.00;6.20;93647.00;;;;7391696;19;20158;-78
2022/05/29 04:13:45;;;;;;;8.10;2.83;;;5.80;99.90;6.20;93655.00;;;;7389718;19;20162;-78
2022/05/29 04:16:25;;;;;;;3.80;2.63;;;5.80;99.90;6.20;93658.00;;;;7399533;19;20136;-79
2022/05/29 04:18:52;;;;;;;4.60;3.03;;;5.80;1.00;6.20;93630.00;;;;7400491;19;20137;-78
2022/05/29 04:21:26;;;;;;;7.37;2.97;;;5.80;1.00;6.20;93660.00;;;;7398005;19;20185;-79
2022/05/29 04:23:53;;;;;;;5.63;3.13;;;5.80;1.00;6.20;93646.00;;;;7411761;19;20141;-80
2022/05/29 04:26:20;;;;;;;6.70;2.97;;;5.80;1.00;6.30;93656.00;;;;7421049;19;20125;-80
2022/05/29 04:28:54;;;;;;;6.67;3.20;;;5.80;1.00;6.30;93635.00;;;;7418188;19;20165;-80
2022/05/29 04:31:21;;;;;;;12.00;3.90;;;5.80;1.00;6.30;93671.00;;;;7418187;19;20141;-81
2022/05/29 04:33:49;;;;;;;5.93;3.20;;;5.80;18.40;6.30;93669.00;;;;7417274;19;20121;-80
2022/05/29 04:36:24;;;;;;;9.33;2.83;;;5.90;99.90;6.40;93665.00;;;;7417895;19;20661;-82
2022/05/29 04:38:52;;;;;;;6.03;3.07;;;5.90;99.90;6.30;93657.00;;;;7415551;19;20144;-78
2022/05/29 04:41:25;;;;;;;9.23;3.33;;;5.90;99.90;6.30;93648.00;;;;7409158;19;20150;-81
2022/05/29 04:43:58;;;;;;;7.90;3.13;;;5.90;99.90;6.30;93672.00;;;;7403992;19;20144;-80
2022/05/29 04:46:25;;;;;;;7.27;3.33;;;5.90;99.90;6.40;93653.00;;;;7400756;19;20140;-80
2022/05/29 04:48:52;;;;;;;6.30;2.97;;;5.90;99.90;6.50;93674.00;;;;7407272;19;20220;-80
2022/05/29 04:51:26;;;;;;;8.67;2.80;;;6.00;89.00;6.70;93651.00;;;;7405672;19;20121;-81
2022/05/29 04:53:53;;;;;;;6.93;3.37;;;6.10;91.50;6.80;93681.00;;;;7407350;19;20129;-82
2022/05/29 04:56:21;;;;;;;6.97;3.07;;;6.20;47.50;7.00;93671.00;;;;7403735;19;20143;-80
2022/05/29 04:58:57;;;;;;;6.63;2.90;;;6.30;85.70;7.00;93674.00;;;;7406891;19;20692;-79
2022/05/29 05:01:24;;;;;;;5.70;2.80;;;6.50;1.00;7.10;93655.00;;;;7409612;19;20149;-80
2022/05/29 05:03:51;;;;;;;5.93;2.73;;;6.70;1.00;7.10;93660.00;;;;7409538;19;20147;-80
2022/05/29 05:06:28;;;;;;;6.23;2.90;;;6.80;1.00;7.10;93646.00;;;;7413861;19;20173;-81
2022/05/29 05:08:55;;;;;;;10.87;2.73;;;6.80;99.90;7.00;93659.00;;;;7410071;19;20584;-82
2022/05/29 05:11:25;;;;;;;4.83;2.20;;;6.90;99.90;7.00;93672.00;;;;7409349;19;20663;-77
2022/05/29 05:14:07;;;;;;;6.70;2.50;;;6.80;1.00;7.00;93680.00;;;;7417907;19;20153;-80
2022/05/29 05:16:41;;;;;;;9.67;3.27;;;6.80;1.00;7.00;93670.00;;;;7420053;19;20148;-82
2022/05/29 05:19:16;;;;;;;9.00;2.70;;;6.70;1.00;7.00;93670.00;;;;7415924;19;20132;-79
2022/05/29 05:21:43;;;;;;;3.13;2.40;;;6.80;1.00;7.20;93642.00;;;;7412811;19;20189;-78
2022/05/29 05:24:11;;;;;;;7.70;2.57;;;6.80;1.00;7.20;93623.00;;;;7418809;19;20216;-79
2022/05/29 05:26:49;;;;;;;7.33;2.90;;;6.90;1.00;7.60;93647.00;;;;7422690;19;20168;-80
2022/05/29 05:29:17;;;;;;;5.13;2.60;;;7.00;1.00;7.60;93630.00;;;;7420443;19;20149;-81
2022/05/29 05:31:44;;;;;;;3.57;2.30;;;7.10;1.00;7.70;93665.00;;;;7417286;19;20121;-79
2022/05/29 05:34:19;;;;;;;7.60;2.73;;;7.20;99.90;8.00;93653.00;;;;7409664;19;20132;-79
2022/05/29 05:36:46;;;;;;;7.40;2.53;;;7.20;99.90;8.20;93648.00;;;;7403027;19;20477;-78
2022/05/29 05:39:15;;;;;;;6.10;2.73;;;7.40;99.90;8.40;93648.00;;;;7405483;19;20125;-78
2022/05/29 05:41:50;;;;;;;7.70;2.93;;;7.40;99.90;8.60;93648.00;;;;7406237;19;20144;-80
2022/05/29 05:44:18;;;;;;;7.50;2.80;;;7.80;99.90;9.30;93642.00;;;;7400879;19;20139;-78
2022/05/29 05:46:53;;;;;;;10.83;2.33;;;8.10;99.90;9.60;93641.00;;;;7401057;19;20153;-79
2022/05/29 05:49:28;;;;;;;5.73;2.20;;;8.20;1.00;9.50;93636.00;;;;7403382;19;20656;-79
2022/05/29 05:51:59;;;;;;;4.80;2.30;;;8.50;99.90;9.40;93634.00;;;;7400756;19;20125;-79
2022/05/29 05:54:31;;;;;;;4.80;2.47;;;8.50;99.90;9.40;93637.00;;;;7403784;19;20145;-79
2022/05/29 05:57:06;;;;;;;4.00;2.20;;;8.50;99.90;9.40;93641.00;;;;7403190;19;20192;-78
2022/05/29 05:59:39;;;;;;;5.60;2.17;;;8.50;99.90;9.20;93631.00;;;;7399233;19;20132;-78
2022/05/29 06:02:14;;;;;;;5.70;2.20;;;8.50;99.90;8.90;93640.00;;;;7402154;19;20483;-78
2022/05/29 06:04:43;;;;;;;6.87;2.73;;;8.40;86.90;8.60;93636.00;;;;7400836;19;20141;-78
2022/05/29 06:07:11;;;;;;;7.33;2.50;;;8.20;1.00;8.70;93646.00;;;;7402122;19;20137;-79
2022/05/29 06:09:49;;;;;;;7.00;2.00;;;8.10;83.90;8.50;93621.00;;;;7404239;19;20564;-79
2022/05/29 06:12:19;;;;;;;6.37;2.40;;;7.90;99.90;8.70;93649.00;;;;7402526;19;20603;-79
2022/05/29 06:15:00;;;;;;;4.13;2.00;;;8.00;99.90;8.90;93644.00;;;;7401716;19;20176;-78
2022/05/29 06:17:34;;;;;;;9.53;2.17;;;8.20;99.90;9.90;93610.00;;;;7401545;19;20129;-77
2022/05/29 06:20:09;;;;;;;4.47;1.90;;;8.60;1.00;10.90;93630.00;;;;7403899;19;20133;-77
2022/05/29 06:22:40;;;;;;;5.20;2.63;;;9.10;1.00;11.40;93650.00;;;;7400165;19;20647;-78
2022/05/29 06:25:10;;;;;;;6.10;2.40;;;9.70;1.00;11.90;93652.00;;;;7400283;19;20137;-79
2022/05/29 06:27:45;;;;;;;3.38;1.80;;;10.30;99.90;11.60;93648.00;;;;7402173;19;20136;-78
2022/05/29 06:30:16;;;;;;;5.57;1.80;;;10.50;99.90;11.20;93658.00;;;;7402887;19;20137;-78
2022/05/29 06:32:44;;;;;;;6.88;1.73;;;10.40;99.90;10.70;93630.00;;;;7401113;19;20501;-79
2022/05/29 06:35:18;;;;;;;7.22;2.05;;;10.10;99.90;10.40;93654.00;;;;7401143;19;20140;-78
2022/05/29 06:37:45;;;;;;;4.78;1.58;;;10.00;99.90;10.40;93634.00;;;;7400630;19;20148;-79
2022/05/29 06:40:14;;;;;;;6.63;1.90;;;10.00;99.90;11.30;93632.00;;;;7400593;19;20982;-77
2022/05/29 06:42:48;;;;;;;4.75;2.03;;;10.20;99.90;11.70;93648.00;;;;7398142;19;20155;-77
2022/05/29 06:45:15;;;;;;;5.60;1.77;;;10.40;99.90;11.70;93647.00;;;;7401342;19;20168;-78
2022/05/29 06:47:42;;;;;;;4.85;1.67;;;10.60;99.90;11.50;93658.00;;;;7401623;19;20683;-78
2022/05/29 06:50:17;;;;;;;4.25;2.00;;;10.80;60.50;10.60;93670.00;;;;7405987;19;20140;-79
2022/05/29 06:52:44;;;;;;;6.38;2.42;;;10.70;18.00;10.50;93676.00;;;;7399509;19;20172;-79
2022/05/29 06:55:12;;;;;;;5.25;2.05;;;10.40;99.90;10.20;93654.00;;;;7403377;19;20625;-79
2022/05/29 06:57:46;;;;;;;5.28;2.17;;;10.10;99.90;10.10;93655.00;;;;7404507;19;20144;-80
2022/05/29 07:08:54;;;;;;;6.60;2.22;;;9.80;99.90;10.60;93673.00;;;;7402130;19;20149;-80
2022/05/29 07:11:25;;;;;;;7.10;2.22;;;9.80;99.90;10.60;93675.00;;;;7396601;19;20144;-79
2022/05/29 07:13:54;;;;;;;6.30;2.17;;;9.80;99.90;10.80;93682.00;;;;7404970;19;20152;-78
2022/05/29 07:16:34;;;;;;;6.30;1.92;;;10.00;99.90;10.70;93682.00;;;;7408906;19;20147;-79
2022/05/29 07:19:04;;;;;;;5.85;2.30;;;10.20;99.90;11.10;93684.00;;;;7405269;19;20144;-79
2022/05/29 07:21:41;;;;;;;6.20;2.30;;;10.50;99.90;11.30;93698.00;;;;7402014;19;20174;-80
2022/05/29 07:24:09;;;;;;;6.55;2.40;;;10.70;99.90;11.30;93696.00;;;;7407286;19;20136;-80
2022/05/29 07:26:38;;;;;;;6.22;2.55;;;10.80;99.90;10.70;93712.00;;;;7402374;19;20150;-79
2022/05/29 07:29:15;;;;;;;6.57;2.05;;;10.70;99.90;9.90;93691.00;;;;7403103;19;20148;-78
2022/05/29 07:31:43;;;;;;;7.28;2.20;;;10.30;99.90;9.50;93712.00;;;;7403033;19;20145;-78
2022/05/29 07:34:10;;;;;;;4.75;2.42;;;9.90;99.90;9.00;93721.00;;;;7405318;19;20128;-78
2022/05/29 07:36:45;;;;;;;9.07;2.85;;;9.50;99.90;8.80;93703.00;;;;7404048;19;20140;-79
2022/05/29 07:39:13;;;;;;;8.55;2.95;;;9.10;1.00;8.50;93734.00;;;;7405354;19;20204;-80
2022/05/29 07:44:41;;;;;;;6.97;2.90;;;8.40;1.00;7.80;93722.00;;;;7406632;19;20137;-78
2022/05/29 07:47:08;;;;;;;5.90;2.90;;;7.90;1.00;7.70;93732.00;;;;7404725;19;20124;-80
2022/05/29 07:49:43;;;;;;;9.43;3.07;;;7.70;99.90;7.50;93724.00;;;;7406288;19;20128;-79
2022/05/29 07:52:11;;;;;;;7.17;3.13;;;7.40;99.90;7.40;93722.00;;;;7416539;19;20129;-79
2022/05/29 07:54:39;;;;;;;7.57;3.00;;;7.20;99.90;7.20;93738.00;;;;7416831;19;20132;-79
2022/05/29 07:57:13;;;;;;;9.43;2.73;;;7.00;1.00;7.10;93749.00;;;;7419215;19;20141;-79
2022/05/29 07:59:40;;;;;;;12.90;3.80;;;6.90;76.30;7.10;93725.00;;;;7424398;19;20139;-78
2022/05/29 08:02:08;;;;;;;9.03;3.27;;;6.90;99.90;7.10;93724.00;;;;7425504;19;20129;-79
2022/05/29 08:04:42;;;;;;;12.00;3.63;;;6.80;1.00;7.00;93723.00;;;;7418925;19;20160;-82
2022/05/29 08:07:15;;;;;;;9.43;4.50;;;6.70;1.00;6.90;93750.00;;;;7424144;19;20117;-84
2022/05/29 08:09:49;;;;;;;8.97;3.60;;;6.60;1.00;7.10;93704.00;;;;7426284;19;20148;-83
2022/05/29 08:12:16;;;;;;;7.90;3.73;;;6.70;1.00;7.00;93723.00;;;;7426567;19;20148;-82
2022/05/29 08:14:44;;;;;;;9.27;4.13;;;6.70;99.90;7.00;93729.00;;;;7424132;19;20140;-84
2022/05/29 08:17:24;;;;;;;8.83;4.53;;;6.70;99.90;7.00;93751.00;;;;7425675;19;20151;-82
2022/05/29 08:19:52;;;;;;;10.10;4.00;;;6.70;99.90;7.00;93754.00;;;;7426949;19;20144;-84
2022/05/29 08:22:32;;;;;;;8.27;4.03;;;6.80;99.90;7.10;93743.00;;;;7413347;19;20232;-78
2022/05/29 08:30:57;;;;;;;9.03;4.10;;;6.80;99.90;6.90;93537.00;;;;7431170;19;20145;-77
2022/05/29 08:48:31;;;;;;;8.77;4.90;;;6.60;1.00;7.00;93565.00;;;;7402706;19;20706;-81
2022/05/29 08:51:45;;;;;;;9.47;4.67;;;6.60;1.00;6.50;93823.00;;;;7427900;19;20241;-86
2022/05/29 08:54:34;;;;;;;11.27;5.23;;;6.60;23.50;6.90;93599.00;;;;7428342;19;20145;-82
2022/05/29 08:57:37;;;;;;;11.80;5.07;;;6.60;99.90;6.80;93583.00;;;;7426020;19;20137;-83
2022/05/29 09:01:09;;;;;;;11.40;5.40;;;6.50;1.00;6.70;93751.00;;;;7427732;19;20129;-80
2022/05/29 09:04:01;;;;;;;14.53;4.57;;;6.40;1.00;6.60;93734.00;;;;7423278;19;20148;-82
2022/05/29 09:06:49;;;;;;;8.57;4.90;;;6.40;65.80;6.50;93786.00;;;;7431137;19;20144;-83
2022/05/29 09:09:56;;;;;;;10.03;4.87;;;6.30;99.90;6.60;93748.00;;;;7429180;19;20125;-79
2022/05/29 09:12:52;;;;;;;10.07;5.50;;;6.30;99.90;6.60;93645.00;;;;7430075;19;20140;-81
2022/05/29 09:15:48;;;;;;;9.17;5.07;;;6.30;99.90;6.80;93741.00;;;;7430284;19;20132;-83
2022/05/29 09:18:37;;;;;;;17.10;5.50;;;6.30;1.00;6.90;93562.00;;;;7431075;19;20141;-85
2022/05/29 09:24:32;;;;;;;10.07;5.40;;;6.50;1.00;6.80;93785.00;;;;7424864;19;20185;-83
2022/05/29 09:27:13;;;;;;;10.27;5.57;;;6.60;1.00;7.20;93588.00;;;;7429530;19;20128;-82
2022/05/29 09:29:44;;;;;;;15.90;6.90;;;6.70;1.00;7.00;93635.00;;;;7428704;19;20149;-84
2022/05/29 09:32:30;;;;;;;12.63;5.60;;;6.70;1.00;7.10;93757.00;;;;7425953;19;20144;-83
2022/05/29 09:35:24;;;;;;;13.97;5.40;;;6.70;1.00;7.30;93734.00;;;;7422923;19;20181;-81
2022/05/29 09:38:23;;;;;;;14.23;6.10;;;6.90;1.00;7.70;93742.00;;;;7422764;19;20188;-82
2022/05/29 09:41:30;;;;;;;8.27;5.60;;;7.10;1.00;7.80;93736.00;;;;7417201;19;20222;-81
2022/05/29 09:44:18;;;;;;;14.73;5.57;;;7.30;99.90;7.80;93598.00;;;;7424370;19;20133;-82
2022/05/29 09:46:52;;;;;;;7.87;4.57;;;7.40;99.90;6.90;93741.00;;;;7420794;19;20145;-81
2022/05/29 09:49:43;;;;;;;8.93;4.67;;;7.40;99.90;7.80;93646.00;;;;7428888;19;20148;-80
2022/05/29 09:52:23;;;;;;;10.40;5.47;;;7.40;99.90;8.00;93523.00;;;;7428573;19;20148;-82
2022/05/29 09:55:34;;;;;;;12.13;5.80;;;7.60;99.90;7.70;93752.00;;;;7423543;19;20141;-80
2022/05/29 09:58:10;;;;;;;7.93;4.27;;;7.60;99.90;7.50;93634.00;;;;7421252;19;20140;-80
2022/05/29 10:01:03;;;;;;;5.97;3.77;;;7.50;99.90;7.20;93778.00;;;;7418084;19;20148;-80
2022/05/29 10:03:43;;;;;;;8.90;4.20;;;7.30;99.90;7.40;93485.00;;;;7420231;19;20153;-78
2022/05/29 10:06:42;;;;;;;4.63;3.30;;;7.30;52.50;7.90;93738.00;;;;7423642;19;20151;-80
2022/05/29 10:09:23;;;;;;;7.53;3.00;;;7.40;39.60;8.30;93542.00;;;;7421956;19;20149;-81
2022/05/29 10:12:21;;;;;;;4.23;2.47;;;7.70;68.30;8.90;93781.00;;;;7429617;19;20634;-78
2022/05/29 10:15:06;;;;;;;4.13;2.73;;;8.10;1.00;9.50;93596.00;;;;7428125;19;20153;-82
2022/05/29 10:17:44;;;;;;;4.83;2.73;;;8.50;1.00;9.90;93546.00;;;;7428271;19;20148;-82
2022/05/29 10:20:43;;;;;;;6.53;2.70;;;9.00;1.00;10.20;93518.00;;;;7426861;19;20207;-81
2022/05/29 10:23:42;;;;;;;3.55;2.50;;;9.40;99.90;10.40;93649.00;;;;7422310;19;20204;-81
2022/05/29 10:26:36;;;;;;;5.75;2.85;;;9.80;1.00;10.60;93699.00;;;;7421435;19;20212;-80
2022/05/29 10:29:25;;;;;;;5.07;2.67;;;10.20;1.40;10.50;93733.00;;;;7421280;19;20172;-81
2022/05/29 10:31:58;;;;;;;6.05;2.30;;;10.40;49.60;10.50;93730.00;;;;7419843;19;20171;-80
2022/05/29 10:34:50;;;;;;;4.38;2.28;;;10.40;99.90;10.90;93709.00;;;;7426882;19;20139;-79
2022/05/29 10:37:39;;;;;;;4.47;2.25;;;10.70;1.00;10.80;93603.00;;;;7425610;19;20129;-79
2022/05/29 10:40:32;;;;;;;3.42;2.20;;;10.80;1.00;11.20;93684.00;;;;7427070;19;20129;-81
2022/05/29 10:43:06;;;;;;;8.63;3.50;;;11.10;1.00;12.70;93548.00;;;;7417834;19;20143;-79
2022/05/29 10:45:47;;;;;;;14.75;11.15;;;;;14.10;93685.00;;;;7416151;19;20157;-79
2022/05/29 10:48:49;;;;;;;5.75;2.25;;;12.80;1.00;15.30;93607.00;;;;7407707;19;20137;-81
2022/05/29 10:51:58;;;;;;;5.22;3.83;;;14.00;1.00;14.50;93698.00;;;;7398139;19;20166;-81
2022/05/29 10:54:47;;;;;;;4.28;2.80;;;14.40;99.90;13.70;93707.00;;;;7400477;19;20175;-81
2022/05/29 10:58:01;;;;;;;8.15;7.32;;;14.30;99.90;14.10;93694.00;;;;7398784;19;20137;-81
2022/05/29 11:03:17;;;;;;;3.70;2.28;;;14.50;99.90;14.40;93688.00;;;;7400853;19;20136;-80
2022/05/29 11:04:57;;;;;;;3.33;1.77;;;15.10;99.90;16.10;93673.00;;;;7400937;19;20242;-79
2022/05/29 11:08:16;;;;;;;3.97;1.70;;;16.00;99.90;16.20;93669.00;;;;7398058;19;20619;-80
2022/05/29 11:11:18;;;;;;;5.43;2.10;;;16.20;1.00;15.70;93687.00;;;;7393498;19;20145;-79
2022/05/29 11:14:00;;;;;;;4.80;1.98;;;17.00;1.00;15.90;93691.00;;;;7394345;19;20155;-79
2022/05/29 11:16:49;;;;;;;5.05;1.98;;;16.80;1.00;15.90;93664.00;;;;7397502;19;20193;-78
2022/05/29 11:19:42;;;;;;;4.00;2.10;;;16.80;1.00;15.20;93647.00;;;;7399293;19;20164;-79
2022/05/29 11:23:06;;;;;;;3.38;1.75;;;16.90;1.00;16.50;93687.00;;;;7397355;19;20173;-78
2022/05/29 11:26:10;;;;;;;5.00;2.10;;;17.30;1.00;15.20;93687.00;;;;7399213;19;20180;-78
2022/05/29 11:29:15;;;;;;;3.28;1.90;;;17.00;1.00;15.70;93652.00;;;;7398203;19;20149;-78
2022/05/29 11:32:44;;;;;;;3.15;1.73;;;16.70;1.00;15.70;93668.00;;;;7398334;19;20149;-78
2022/05/29 11:35:53;;;;;;;3.50;1.80;;;16.70;1.00;14.30;93667.00;;;;7396543;19;20149;-79
2022/05/29 11:38:59;;;;;;;3.15;1.40;;;16.30;1.00;14.20;93636.00;;;;7397841;19;20156;-78
2022/05/29 11:42:08;;;;;;;4.35;1.70;;;15.80;1.00;13.70;93676.00;;;;7398892;19;20187;-77
2022/05/29 11:45:17;;;;;;;4.93;1.80;;;15.50;1.00;13.90;93635.00;;;;7396717;19;20144;-78
2022/05/29 11:51:11;;;;;;;4.55;1.90;;;16.10;35.10;15.70;93663.00;;;;7397948;19;20179;-78
2022/05/29 11:54:14;;;;;;;3.40;1.50;;;16.20;1.00;15.40;93631.00;;;;7398552;19;20173;-81
2022/05/29 11:57:11;;;;;;;4.18;1.40;;;16.20;1.00;15.10;93633.00;;;;7396523;19;20144;-79
2022/05/29 12:00:08;;;;;;;3.00;1.50;;;16.00;1.00;16.20;93632.00;;;;7405602;19;20139;-80
2022/05/29 12:03:30;;;;;;;3.15;1.40;;;16.00;1.00;15.20;93654.00;;;;7404131;19;20153;-79
2022/05/29 12:06:28;;;;;;;3.97;1.80;;;16.10;1.00;13.80;93655.00;;;;7405678;19;20133;-78
2022/05/29 12:09:38;;;;;;;5.57;1.65;;;15.30;1.00;13.60;93651.00;;;;7404251;19;20149;-78
2022/05/29 12:12:38;;;;;;;3.63;1.83;;;14.50;1.00;13.00;93636.00;;;;7405287;19;20152;-77
2022/05/29 12:15:20;;;;;;;4.50;1.92;;;14.00;1.00;13.20;93624.00;;;;7405766;19;20221;-78
2022/05/29 12:18:12;;;;;;;4.78;2.22;;;13.60;1.00;15.20;93608.00;;;;7402185;19;20176;-78
2022/05/29 12:21:07;;;;;;;3.13;1.45;;;14.20;1.00;16.90;93602.00;;;;7405040;19;20180;-78
2022/05/29 12:23:54;;;;;;;3.90;1.48;;;15.20;1.00;16.50;93609.00;;;;7400277;19;20181;-78
2022/05/29 12:26:36;;;;;;;3.25;1.63;;;15.50;1.00;15.60;93618.00;;;;7402509;19;20137;-77
2022/05/29 12:29:27;;;;;;;3.85;1.58;;;15.60;1.00;14.70;93606.00;;;;7398062;19;20149;-78
2022/05/29 12:32:27;;;;;;;4.38;1.45;;;15.30;1.00;14.20;93608.00;;;;7402877;19;20159;-79
2022/05/29 12:35:16;;;;;;;2.95;2.05;;;14.90;1.00;14.30;93633.00;;;;7399083;19;20207;-77
2022/05/29 12:38:31;;;;;;;5.78;2.70;;;14.50;1.00;14.40;93609.00;;;;7401065;19;20163;-78
2022/05/29 12:41:25;;;;;;;18.45;9.27;;;14.40;1.00;16.00;93596.00;;;;7400842;19;20500;-78
2022/05/29 12:44:34;;;;;;;17.83;9.40;;;15.10;1.00;17.70;93597.00;;;;7400239;19;20149;-78
2022/05/29 12:48:10;;;;;;;6.43;2.50;;;15.90;1.00;17.90;93588.00;;;;7396904;19;20129;-79
2022/05/29 12:50:54;;;;;;;4.32;2.88;;;16.90;99.90;18.30;93593.00;;;;7400397;19;20151;-78
2022/05/29 12:54:45;;;;;;;7.13;2.70;;;17.40;99.90;17.80;93609.00;;;;7400513;19;20180;-78
2022/05/29 12:57:55;;;;;;;4.90;1.90;;;17.50;99.90;17.40;93588.00;;;;7399492;19;20609;-80
2022/05/29 13:01:05;;;;;;;5.25;1.80;;;17.10;99.90;18.00;93593.00;;;;7401332;19;20524;-79
2022/05/29 13:04:07;;;;;;;3.47;2.00;;;17.30;99.90;18.40;93588.00;;;;7403315;19;20136;-79
2022/05/29 13:06:59;;;;;;;4.15;1.70;;;17.50;99.90;17.50;93603.00;;;;7402833;19;20160;-80
2022/05/29 13:09:51;;;;;;;3.00;1.40;;;17.50;99.90;17.40;93588.00;;;;7400248;19;20603;-78